sensor_id;sensor_type;location;lat;lon;timestamp;pressure;altitude;pressure_sealevel;temperature;humidity
24336;BME280;33098;52.400;16.880;2023-09-30T00:01:51;100762.67;;;20.91;83.70
24336;BME280;33098;52.400;16.880;2023-09-30T00:04:18;100765.90;;;20.89;83.73
24336;BME280;33098;52.400;16.880;2023-09-30T00:06:45;100768.30;;;20.86;83.74
24336;BME280;33098;52.400;16.880;2023-09-30T00:09:13;100767.13;;;20.85;83.81
24336;BME280;33098;52.400;16.880;2023-09-30T00:11:40;100767.73;;;20.83;83.78
24336;BME280;33098;52.400;16.880;2023-09-30T00:14:08;100767.46;;;20.81;83.86
24336;BME280;33098;52.400;16.880;2023-09-30T00:16:38;100773.02;;;20.83;83.87
24336;BME280;33098;52.400;16.880;2023-09-30T00:19:05;100773.96;;;20.82;83.81
24336;BME280;33098;52.400;16.880;2023-09-30T00:21:40;100775.36;;;20.81;83.92
24336;BME280;33098;52.400;16.880;2023-09-30T00:24:08;100775.79;;;20.79;83.84
24336;BME280;33098;52.400;16.880;2023-09-30T00:26:58;100779.16;;;20.71;83.80
24336;BME280;33098;52.400;16.880;2023-09-30T00:29:36;100778.41;;;20.65;83.72
24336;BME280;33098;52.400;16.880;2023-09-30T00:32:05;100770.37;;;20.57;83.89
24336;BME280;33098;52.400;16.880;2023-09-30T00:34:37;100776.95;;;20.56;84.06
24336;BME280;33098;52.400;16.880;2023-09-30T00:37:06;100779.15;;;20.57;84.27
24336;BME280;33098;52.400;16.880;2023-09-30T00:39:37;100778.98;;;20.53;84.20
24336;BME280;33098;52.400;16.880;2023-09-30T00:42:08;100781.52;;;20.51;84.20
24336;BME280;33098;52.400;16.880;2023-09-30T00:44:44;100779.55;;;20.51;84.59
24336;BME280;33098;52.400;16.880;2023-09-30T00:47:14;100778.61;;;20.49;84.39
24336;BME280;33098;52.400;16.880;2023-09-30T00:49:50;100777.83;;;20.50;84.60
24336;BME280;33098;52.400;16.880;2023-09-30T00:52:27;100777.80;;;20.53;84.51
24336;BME280;33098;52.400;16.880;2023-09-30T00:55:00;100782.27;;;20.54;84.46
24336;BME280;33098;52.400;16.880;2023-09-30T00:57:35;100786.80;;;20.49;84.28
24336;BME280;33098;52.400;16.880;2023-09-30T01:00:07;100790.52;;;20.48;84.55
24336;BME280;33098;52.400;16.880;2023-09-30T01:02:54;100798.50;;;20.43;84.70
24336;BME280;33098;52.400;16.880;2023-09-30T01:05:24;100799.79;;;20.39;84.83
24336;BME280;33098;52.400;16.880;2023-09-30T01:07:52;100799.98;;;20.33;85.41
24336;BME280;33098;52.400;16.880;2023-09-30T01:10:23;100801.71;;;20.27;85.65
24336;BME280;33098;52.400;16.880;2023-09-30T01:12:56;100799.02;;;20.25;85.63
24336;BME280;33098;52.400;16.880;2023-09-30T01:15:29;100805.34;;;20.29;85.87
24336;BME280;33098;52.400;16.880;2023-09-30T01:18:03;100809.20;;;20.28;86.20
24336;BME280;33098;52.400;16.880;2023-09-30T01:20:31;100813.96;;;20.30;86.27
24336;BME280;33098;52.400;16.880;2023-09-30T01:23:00;100819.11;;;20.29;86.33
24336;BME280;33098;52.400;16.880;2023-09-30T01:25:31;100822.99;;;20.27;86.87
24336;BME280;33098;52.400;16.880;2023-09-30T01:28:00;100822.05;;;20.26;87.04
24336;BME280;33098;52.400;16.880;2023-09-30T01:30:33;100821.83;;;20.31;87.39
24336;BME280;33098;52.400;16.880;2023-09-30T01:33:01;100822.50;;;20.33;87.62
24336;BME280;33098;52.400;16.880;2023-09-30T01:35:28;100821.63;;;20.33;87.46
24336;BME280;33098;52.400;16.880;2023-09-30T01:37:55;100819.02;;;20.32;87.78
24336;BME280;33098;52.400;16.880;2023-09-30T01:40:25;100824.66;;;20.33;87.78
24336;BME280;33098;52.400;16.880;2023-09-30T01:42:52;100827.29;;;20.37;87.82
24336;BME280;33098;52.400;16.880;2023-09-30T01:45:19;100838.23;;;20.39;87.95
24336;BME280;33098;52.400;16.880;2023-09-30T01:47:46;100841.98;;;20.31;88.35
24336;BME280;33098;52.400;16.880;2023-09-30T01:50:13;100839.25;;;20.27;88.80
24336;BME280;33098;52.400;16.880;2023-09-30T01:52:40;100844.04;;;20.30;89.03
24336;BME280;33098;52.400;16.880;2023-09-30T01:55:08;100842.75;;;20.34;89.17
24336;BME280;33098;52.400;16.880;2023-09-30T01:57:35;100849.64;;;20.34;89.41
24336;BME280;33098;52.400;16.880;2023-09-30T02:00:04;100854.59;;;20.37;89.56
24336;BME280;33098;52.400;16.880;2023-09-30T02:02:39;100857.45;;;20.36;90.07
24336;BME280;33098;52.400;16.880;2023-09-30T02:05:07;100860.04;;;20.37;90.15
24336;BME280;33098;52.400;16.880;2023-09-30T02:07:37;100861.27;;;20.40;90.47
24336;BME280;33098;52.400;16.880;2023-09-30T02:10:09;100858.52;;;20.43;90.69
24336;BME280;33098;52.400;16.880;2023-09-30T02:12:36;100861.88;;;20.41;90.88
24336;BME280;33098;52.400;16.880;2023-09-30T02:15:04;100866.95;;;20.41;91.20
24336;BME280;33098;52.400;16.880;2023-09-30T02:17:34;100864.95;;;20.43;91.46
24336;BME280;33098;52.400;16.880;2023-09-30T02:20:01;100867.80;;;20.47;92.08
24336;BME280;33098;52.400;16.880;2023-09-30T02:22:33;100875.13;;;20.47;92.11
24336;BME280;33098;52.400;16.880;2023-09-30T02:25:03;100882.80;;;20.43;92.58
24336;BME280;33098;52.400;16.880;2023-09-30T02:27:33;100889.67;;;20.36;92.84
24336;BME280;33098;52.400;16.880;2023-09-30T02:30:01;100896.26;;;20.39;93.25
24336;BME280;33098;52.400;16.880;2023-09-30T02:32:28;100897.79;;;20.35;93.61
24336;BME280;33098;52.400;16.880;2023-09-30T02:34:55;100902.79;;;20.34;93.87
24336;BME280;33098;52.400;16.880;2023-09-30T02:37:22;100903.98;;;20.29;94.43
24336;BME280;33098;52.400;16.880;2023-09-30T02:39:49;100907.64;;;20.29;94.64
24336;BME280;33098;52.400;16.880;2023-09-30T02:42:16;100914.29;;;20.33;95.10
24336;BME280;33098;52.400;16.880;2023-09-30T02:44:43;100915.33;;;20.31;94.84
24336;BME280;33098;52.400;16.880;2023-09-30T02:47:10;100917.43;;;20.30;95.19
24336;BME280;33098;52.400;16.880;2023-09-30T02:49:41;100915.71;;;20.29;95.11
24336;BME280;33098;52.400;16.880;2023-09-30T02:52:08;100916.16;;;20.30;95.16
24336;BME280;33098;52.400;16.880;2023-09-30T02:54:36;100919.14;;;20.32;95.06
24336;BME280;33098;52.400;16.880;2023-09-30T02:57:02;100914.83;;;20.32;95.41
24336;BME280;33098;52.400;16.880;2023-09-30T02:59:31;100905.74;;;20.31;95.43
24336;BME280;33098;52.400;16.880;2023-09-30T03:01:58;100906.95;;;20.37;95.44
24336;BME280;33098;52.400;16.880;2023-09-30T03:04:25;100908.93;;;20.38;95.48
24336;BME280;33098;52.400;16.880;2023-09-30T03:06:55;100917.52;;;20.40;95.35
24336;BME280;33098;52.400;16.880;2023-09-30T03:09:25;100920.99;;;20.47;95.47
24336;BME280;33098;52.400;16.880;2023-09-30T03:11:52;100925.58;;;20.45;95.06
24336;BME280;33098;52.400;16.880;2023-09-30T03:14:23;100924.74;;;20.42;95.12
24336;BME280;33098;52.400;16.880;2023-09-30T03:16:50;100927.48;;;20.40;95.30
24336;BME280;33098;52.400;16.880;2023-09-30T03:19:17;100928.16;;;20.40;95.38
24336;BME280;33098;52.400;16.880;2023-09-30T03:21:45;100926.45;;;20.36;95.43
24336;BME280;33098;52.400;16.880;2023-09-30T03:24:14;100931.88;;;20.36;95.50
24336;BME280;33098;52.400;16.880;2023-09-30T03:26:42;100935.30;;;20.36;95.76
24336;BME280;33098;52.400;16.880;2023-09-30T03:29:09;100929.94;;;20.33;95.60
24336;BME280;33098;52.400;16.880;2023-09-30T03:31:36;100938.50;;;20.27;95.69
24336;BME280;33098;52.400;16.880;2023-09-30T03:34:05;100940.80;;;20.23;95.81
24336;BME280;33098;52.400;16.880;2023-09-30T03:36:35;100940.91;;;20.22;96.19
24336;BME280;33098;52.400;16.880;2023-09-30T03:39:02;100940.91;;;20.22;96.45
24336;BME280;33098;52.400;16.880;2023-09-30T03:41:35;100937.70;;;20.21;96.41
24336;BME280;33098;52.400;16.880;2023-09-30T03:44:05;100940.55;;;20.17;96.33
24336;BME280;33098;52.400;16.880;2023-09-30T03:46:33;100943.73;;;20.14;96.47
24336;BME280;33098;52.400;16.880;2023-09-30T03:49:03;100948.83;;;20.12;96.53
24336;BME280;33098;52.400;16.880;2023-09-30T03:51:37;100958.23;;;20.10;96.41
24336;BME280;33098;52.400;16.880;2023-09-30T03:54:04;100952.99;;;20.05;96.61
24336;BME280;33098;52.400;16.880;2023-09-30T03:56:57;100962.23;;;20.03;96.74
24336;BME280;33098;52.400;16.880;2023-09-30T03:59:35;100970.73;;;20.03;96.83
24336;BME280;33098;52.400;16.880;2023-09-30T04:02:02;100978.91;;;20.02;96.76
24336;BME280;33098;52.400;16.880;2023-09-30T04:04:39;100986.85;;;19.99;96.67
24336;BME280;33098;52.400;16.880;2023-09-30T04:07:08;100990.81;;;19.97;96.83
24336;BME280;33098;52.400;16.880;2023-09-30T04:09:51;100995.23;;;19.90;96.75
24336;BME280;33098;52.400;16.880;2023-09-30T04:12:22;101005.10;;;19.82;96.78
24336;BME280;33098;52.400;16.880;2023-09-30T04:14:59;101016.20;;;19.75;96.92
24336;BME280;33098;52.400;16.880;2023-09-30T04:20:13;101032.52;;;19.66;96.84
24336;BME280;33098;52.400;16.880;2023-09-30T04:22:56;101037.45;;;19.64;96.93
24336;BME280;33098;52.400;16.880;2023-09-30T04:25:27;101043.77;;;19.62;97.01
24336;BME280;33098;52.400;16.880;2023-09-30T04:27:57;101051.79;;;19.58;97.15
24336;BME280;33098;52.400;16.880;2023-09-30T04:30:29;101055.75;;;19.53;97.05
24336;BME280;33098;52.400;16.880;2023-09-30T04:33:00;101062.93;;;19.50;97.10
24336;BME280;33098;52.400;16.880;2023-09-30T04:35:30;101074.39;;;19.45;97.05
24336;BME280;33098;52.400;16.880;2023-09-30T04:37:59;101082.70;;;19.33;96.98
24336;BME280;33098;52.400;16.880;2023-09-30T04:40:36;101093.88;;;19.21;97.15
24336;BME280;33098;52.400;16.880;2023-09-30T04:43:08;101096.72;;;19.09;97.33
24336;BME280;33098;52.400;16.880;2023-09-30T04:45:36;101101.49;;;18.99;97.16
24336;BME280;33098;52.400;16.880;2023-09-30T04:48:05;101109.33;;;18.91;97.47
24336;BME280;33098;52.400;16.880;2023-09-30T04:50:33;101105.47;;;18.81;97.42
24336;BME280;33098;52.400;16.880;2023-09-30T04:53:01;101108.35;;;18.74;97.61
24336;BME280;33098;52.400;16.880;2023-09-30T04:55:30;101110.53;;;18.72;97.70
24336;BME280;33098;52.400;16.880;2023-09-30T04:58:00;101116.17;;;18.66;97.98
24336;BME280;33098;52.400;16.880;2023-09-30T05:00:32;101119.84;;;18.64;98.16
24336;BME280;33098;52.400;16.880;2023-09-30T05:03:05;101125.89;;;18.59;98.25
24336;BME280;33098;52.400;16.880;2023-09-30T05:05:36;101129.30;;;18.54;98.44
24336;BME280;33098;52.400;16.880;2023-09-30T05:08:10;101141.30;;;18.45;98.80
24336;BME280;33098;52.400;16.880;2023-09-30T05:10:40;101151.09;;;18.42;99.49
24336;BME280;33098;52.400;16.880;2023-09-30T05:13:08;101156.09;;;18.44;99.92
24336;BME280;33098;52.400;16.880;2023-09-30T05:15:37;101165.20;;;18.34;99.98
24336;BME280;33098;52.400;16.880;2023-09-30T05:18:06;101172.28;;;18.17;100.00
24336;BME280;33098;52.400;16.880;2023-09-30T05:20:38;101174.52;;;18.02;99.80
24336;BME280;33098;52.400;16.880;2023-09-30T05:23:07;101180.25;;;17.85;99.67
24336;BME280;33098;52.400;16.880;2023-09-30T05:25:38;101185.55;;;17.75;99.89
24336;BME280;33098;52.400;16.880;2023-09-30T05:28:05;101188.14;;;17.72;100.00
24336;BME280;33098;52.400;16.880;2023-09-30T05:30:34;101196.14;;;17.68;100.00
24336;BME280;33098;52.400;16.880;2023-09-30T05:33:04;101203.90;;;17.64;100.00
24336;BME280;33098;52.400;16.880;2023-09-30T05:35:33;101209.11;;;17.62;99.98
24336;BME280;33098;52.400;16.880;2023-09-30T05:38:01;101216.73;;;17.55;99.75
24336;BME280;33098;52.400;16.880;2023-09-30T05:40:31;101224.70;;;17.44;99.54
24336;BME280;33098;52.400;16.880;2023-09-30T05:42:59;101226.12;;;17.43;99.62
24336;BME280;33098;52.400;16.880;2023-09-30T05:45:30;101225.06;;;17.41;99.50
24336;BME280;33098;52.400;16.880;2023-09-30T05:47:58;101230.19;;;17.40;99.41
24336;BME280;33098;52.400;16.880;2023-09-30T05:50:34;101227.89;;;17.38;99.12
24336;BME280;33098;52.400;16.880;2023-09-30T05:53:05;101230.23;;;17.36;98.91
24336;BME280;33098;52.400;16.880;2023-09-30T05:55:33;101231.66;;;17.30;98.54
24336;BME280;33098;52.400;16.880;2023-09-30T05:58:02;101231.89;;;17.31;98.61
24336;BME280;33098;52.400;16.880;2023-09-30T06:00:29;101235.59;;;17.34;98.32
24336;BME280;33098;52.400;16.880;2023-09-30T06:03:03;101245.54;;;17.31;97.53
24336;BME280;33098;52.400;16.880;2023-09-30T06:05:41;101243.58;;;17.24;96.93
24336;BME280;33098;52.400;16.880;2023-09-30T06:08:10;101245.67;;;17.22;96.67
24336;BME280;33098;52.400;16.880;2023-09-30T06:10:44;101248.97;;;17.13;96.03
24336;BME280;33098;52.400;16.880;2023-09-30T06:13:14;101249.77;;;17.11;96.13
24336;BME280;33098;52.400;16.880;2023-09-30T06:15:45;101256.09;;;17.05;95.74
24336;BME280;33098;52.400;16.880;2023-09-30T06:18:14;101253.76;;;16.99;95.56
24336;BME280;33098;52.400;16.880;2023-09-30T06:20:49;101252.66;;;16.97;95.24
24336;BME280;33098;52.400;16.880;2023-09-30T06:23:20;101257.65;;;16.95;95.04
24336;BME280;33098;52.400;16.880;2023-09-30T06:25:47;101263.75;;;16.92;94.79
24336;BME280;33098;52.400;16.880;2023-09-30T06:28:14;101271.00;;;16.87;94.36
24336;BME280;33098;52.400;16.880;2023-09-30T06:30:41;101269.74;;;16.78;93.88
24336;BME280;33098;52.400;16.880;2023-09-30T06:33:14;101279.75;;;16.77;94.20
24336;BME280;33098;52.400;16.880;2023-09-30T06:35:42;101281.17;;;16.77;94.00
24336;BME280;33098;52.400;16.880;2023-09-30T06:38:18;101291.38;;;16.73;93.76
24336;BME280;33098;52.400;16.880;2023-09-30T06:40:46;101297.39;;;16.70;93.55
24336;BME280;33098;52.400;16.880;2023-09-30T06:43:14;101304.64;;;16.67;93.45
24336;BME280;33098;52.400;16.880;2023-09-30T06:45:45;101308.52;;;16.64;93.28
24336;BME280;33098;52.400;16.880;2023-09-30T06:48:13;101311.70;;;16.61;93.14
24336;BME280;33098;52.400;16.880;2023-09-30T06:50:47;101311.00;;;16.63;93.10
24336;BME280;33098;52.400;16.880;2023-09-30T06:53:19;101318.42;;;16.62;92.76
24336;BME280;33098;52.400;16.880;2023-09-30T06:55:48;101315.21;;;16.64;92.98
24336;BME280;33098;52.400;16.880;2023-09-30T06:58:16;101319.07;;;16.66;92.80
24336;BME280;33098;52.400;16.880;2023-09-30T07:00:50;101310.58;;;16.63;92.26
24336;BME280;33098;52.400;16.880;2023-09-30T07:03:17;101309.60;;;16.56;92.05
24336;BME280;33098;52.400;16.880;2023-09-30T07:05:46;101310.92;;;16.57;92.29
24336;BME280;33098;52.400;16.880;2023-09-30T07:08:17;101317.21;;;16.57;92.17
24336;BME280;33098;52.400;16.880;2023-09-30T07:10:47;101321.10;;;16.58;92.18
24336;BME280;33098;52.400;16.880;2023-09-30T07:13:19;101324.31;;;16.54;91.89
24336;BME280;33098;52.400;16.880;2023-09-30T07:15:47;101328.49;;;16.57;92.22
24336;BME280;33098;52.400;16.880;2023-09-30T07:18:14;101326.05;;;16.61;92.05
24336;BME280;33098;52.400;16.880;2023-09-30T07:20:40;101328.20;;;16.63;92.04
24336;BME280;33098;52.400;16.880;2023-09-30T07:23:07;101328.08;;;16.68;92.06
24336;BME280;33098;52.400;16.880;2023-09-30T07:25:35;101331.02;;;16.75;91.94
24336;BME280;33098;52.400;16.880;2023-09-30T07:28:02;101335.09;;;16.79;91.62
24336;BME280;33098;52.400;16.880;2023-09-30T07:30:29;101342.88;;;16.85;91.61
24336;BME280;33098;52.400;16.880;2023-09-30T07:32:56;101348.88;;;16.92;91.41
24336;BME280;33098;52.400;16.880;2023-09-30T07:35:24;101355.73;;;16.96;91.04
24336;BME280;33098;52.400;16.880;2023-09-30T07:37:58;101369.44;;;17.03;91.19
24336;BME280;33098;52.400;16.880;2023-09-30T07:40:25;101364.23;;;17.10;90.99
24336;BME280;33098;52.400;16.880;2023-09-30T07:42:51;101365.40;;;17.12;90.23
24336;BME280;33098;52.400;16.880;2023-09-30T07:45:19;101374.42;;;17.12;89.83
24336;BME280;33098;52.400;16.880;2023-09-30T07:47:48;101373.86;;;17.19;89.84
24336;BME280;33098;52.400;16.880;2023-09-30T07:50:16;101372.05;;;17.23;89.15
24336;BME280;33098;52.400;16.880;2023-09-30T07:52:43;101378.92;;;17.26;88.85
24336;BME280;33098;52.400;16.880;2023-09-30T07:55:10;101382.86;;;17.32;88.63
24336;BME280;33098;52.400;16.880;2023-09-30T07:57:39;101387.31;;;17.37;88.03
24336;BME280;33098;52.400;16.880;2023-09-30T08:00:10;101391.25;;;17.43;88.03
24336;BME280;33098;52.400;16.880;2023-09-30T08:02:44;101392.99;;;17.51;87.78
24336;BME280;33098;52.400;16.880;2023-09-30T08:05:11;101395.42;;;17.58;87.51
24336;BME280;33098;52.400;16.880;2023-09-30T08:07:38;101401.25;;;17.64;86.92
24336;BME280;33098;52.400;16.880;2023-09-30T08:10:06;101404.30;;;17.66;86.31
24336;BME280;33098;52.400;16.880;2023-09-30T08:12:39;101410.23;;;17.66;85.57
24336;BME280;33098;52.400;16.880;2023-09-30T08:15:09;101414.87;;;17.72;85.68
24336;BME280;33098;52.400;16.880;2023-09-30T08:17:38;101413.67;;;17.81;85.22
24336;BME280;33098;52.400;16.880;2023-09-30T08:20:06;101413.98;;;17.84;84.72
24336;BME280;33098;52.400;16.880;2023-09-30T08:22:35;101415.23;;;17.86;84.51
24336;BME280;33098;52.400;16.880;2023-09-30T08:25:03;101415.79;;;17.93;84.40
24336;BME280;33098;52.400;16.880;2023-09-30T08:27:33;101416.41;;;18.02;83.94
24336;BME280;33098;52.400;16.880;2023-09-30T08:30:01;101423.30;;;18.09;82.93
24336;BME280;33098;52.400;16.880;2023-09-30T08:32:40;101428.09;;;18.04;82.33
24336;BME280;33098;52.400;16.880;2023-09-30T08:35:09;101431.23;;;18.10;82.76
24336;BME280;33098;52.400;16.880;2023-09-30T08:37:36;101436.16;;;18.18;82.40
24336;BME280;33098;52.400;16.880;2023-09-30T08:40:05;101437.91;;;18.18;82.00
24336;BME280;33098;52.400;16.880;2023-09-30T08:42:33;101440.77;;;18.20;81.89
24336;BME280;33098;52.400;16.880;2023-09-30T08:45:02;101445.86;;;18.25;81.66
24336;BME280;33098;52.400;16.880;2023-09-30T08:47:34;101446.27;;;18.25;81.27
24336;BME280;33098;52.400;16.880;2023-09-30T08:50:03;101444.67;;;18.26;80.85
24336;BME280;33098;52.400;16.880;2023-09-30T08:52:33;101444.33;;;18.30;80.55
24336;BME280;33098;52.400;16.880;2023-09-30T08:55:07;101445.54;;;18.38;80.61
24336;BME280;33098;52.400;16.880;2023-09-30T08:57:40;101446.80;;;18.42;79.85
24336;BME280;33098;52.400;16.880;2023-09-30T09:00:12;101449.52;;;18.34;79.21
24336;BME280;33098;52.400;16.880;2023-09-30T09:02:40;101450.45;;;18.32;79.00
24336;BME280;33098;52.400;16.880;2023-09-30T09:05:09;101443.77;;;18.37;78.99
24336;BME280;33098;52.400;16.880;2023-09-30T09:07:38;101446.43;;;18.55;79.42
24336;BME280;33098;52.400;16.880;2023-09-30T09:12:37;101454.92;;;18.69;78.36
24336;BME280;33098;52.400;16.880;2023-09-30T09:15:22;101450.85;;;18.69;77.87
24336;BME280;33098;52.400;16.880;2023-09-30T09:17:54;101457.02;;;18.66;77.75
24336;BME280;33098;52.400;16.880;2023-09-30T09:20:24;101458.61;;;18.76;77.89
24336;BME280;33098;52.400;16.880;2023-09-30T09:22:53;101454.48;;;18.87;77.53
24336;BME280;33098;52.400;16.880;2023-09-30T09:25:25;101460.18;;;18.92;76.73
24336;BME280;33098;52.400;16.880;2023-09-30T09:27:56;101460.41;;;18.94;76.33
24336;BME280;33098;52.400;16.880;2023-09-30T09:30:26;101460.32;;;18.97;75.44
24336;BME280;33098;52.400;16.880;2023-09-30T09:32:58;101466.57;;;18.92;74.81
24336;BME280;33098;52.400;16.880;2023-09-30T09:35:27;101469.58;;;18.91;74.69
24336;BME280;33098;52.400;16.880;2023-09-30T09:38:07;101464.80;;;19.00;74.94
24336;BME280;33098;52.400;16.880;2023-09-30T09:40:35;101460.90;;;19.14;74.73
24336;BME280;33098;52.400;16.880;2023-09-30T09:43:04;101462.71;;;19.19;72.91
24336;BME280;33098;52.400;16.880;2023-09-30T09:45:34;101468.63;;;19.19;73.01
24336;BME280;33098;52.400;16.880;2023-09-30T09:48:02;101479.96;;;19.19;72.70
24336;BME280;33098;52.400;16.880;2023-09-30T09:50:31;101483.20;;;19.23;72.57
24336;BME280;33098;52.400;16.880;2023-09-30T09:53:04;101483.30;;;19.24;72.16
24336;BME280;33098;52.400;16.880;2023-09-30T09:55:32;101479.83;;;19.26;71.61
24336;BME280;33098;52.400;16.880;2023-09-30T09:58:02;101480.70;;;19.32;71.30
24336;BME280;33098;52.400;16.880;2023-09-30T10:00:30;101483.86;;;19.42;71.11
24336;BME280;33098;52.400;16.880;2023-09-30T10:02:58;101489.70;;;19.48;70.52
24336;BME280;33098;52.400;16.880;2023-09-30T10:05:25;101487.91;;;19.50;70.09
24336;BME280;33098;52.400;16.880;2023-09-30T10:10:23;101490.64;;;19.44;68.56
24336;BME280;33098;52.400;16.880;2023-09-30T10:12:53;101485.70;;;19.45;68.62
24336;BME280;33098;52.400;16.880;2023-09-30T10:18:06;101483.50;;;19.65;68.82
24336;BME280;33098;52.400;16.880;2023-09-30T10:20:35;101484.46;;;19.77;68.48
24336;BME280;33098;52.400;16.880;2023-09-30T10:23:21;101473.31;;;19.88;67.92
24336;BME280;33098;52.400;16.880;2023-09-30T10:26:13;101479.37;;;20.01;68.04
24336;BME280;33098;52.400;16.880;2023-09-30T10:28:46;101482.39;;;20.06;67.24
24336;BME280;33098;52.400;16.880;2023-09-30T10:36:32;101480.86;;;19.93;65.65
24336;BME280;33098;52.400;16.880;2023-09-30T10:39:01;101475.48;;;20.00;65.62
24336;BME280;33098;52.400;16.880;2023-09-30T10:46:59;101474.25;;;20.16;62.57
24336;BME280;33098;52.400;16.880;2023-09-30T10:49:31;101477.77;;;20.20;63.21
24336;BME280;33098;52.400;16.880;2023-09-30T10:51:59;101473.89;;;20.25;62.74
24336;BME280;33098;52.400;16.880;2023-09-30T10:54:32;101470.52;;;20.28;62.99
24336;BME280;33098;52.400;16.880;2023-09-30T10:57:00;101470.15;;;20.34;62.96
24336;BME280;33098;52.400;16.880;2023-09-30T10:59:31;101475.25;;;20.34;62.25
24336;BME280;33098;52.400;16.880;2023-09-30T11:02:01;101475.29;;;20.33;62.42
24336;BME280;33098;52.400;16.880;2023-09-30T11:04:28;101471.76;;;20.38;62.08
24336;BME280;33098;52.400;16.880;2023-09-30T11:06:56;101473.89;;;20.38;61.84
24336;BME280;33098;52.400;16.880;2023-09-30T11:09:33;101476.73;;;20.44;61.94
24336;BME280;33098;52.400;16.880;2023-09-30T11:12:13;101476.82;;;20.49;61.58
24336;BME280;33098;52.400;16.880;2023-09-30T11:14:42;101479.56;;;20.50;61.07
24336;BME280;33098;52.400;16.880;2023-09-30T11:17:09;101481.92;;;20.46;60.92
24336;BME280;33098;52.400;16.880;2023-09-30T11:19:46;101483.11;;;20.47;60.37
24336;BME280;33098;52.400;16.880;2023-09-30T11:22:14;101480.30;;;20.60;60.82
24336;BME280;33098;52.400;16.880;2023-09-30T11:24:46;101476.92;;;20.77;60.73
24336;BME280;33098;52.400;16.880;2023-09-30T11:27:22;101475.90;;;20.94;60.48
24336;BME280;33098;52.400;16.880;2023-09-30T11:30:04;101483.11;;;21.09;60.21
24336;BME280;33098;52.400;16.880;2023-09-30T11:32:32;101475.64;;;21.21;59.33
24336;BME280;33098;52.400;16.880;2023-09-30T11:35:00;101478.95;;;21.27;58.82
24336;BME280;33098;52.400;16.880;2023-09-30T11:37:33;101474.33;;;21.22;58.42
24336;BME280;33098;52.400;16.880;2023-09-30T11:40:13;101478.79;;;21.31;58.48
24336;BME280;33098;52.400;16.880;2023-09-30T11:42:40;101478.46;;;21.35;57.75
24336;BME280;33098;52.400;16.880;2023-09-30T11:45:20;101472.45;;;21.37;57.96
24336;BME280;33098;52.400;16.880;2023-09-30T11:47:48;101476.23;;;21.44;57.86
24336;BME280;33098;52.400;16.880;2023-09-30T11:50:15;101476.28;;;21.47;57.54
24336;BME280;33098;52.400;16.880;2023-09-30T11:52:44;101479.70;;;21.56;57.46
24336;BME280;33098;52.400;16.880;2023-09-30T11:55:13;101482.98;;;21.76;57.31
24336;BME280;33098;52.400;16.880;2023-09-30T11:57:50;101479.67;;;22.04;56.59
24336;BME280;33098;52.400;16.880;2023-09-30T12:00:25;101477.66;;;22.28;56.19
24336;BME280;33098;52.400;16.880;2023-09-30T12:02:56;101480.02;;;22.40;55.49
24336;BME280;33098;52.400;16.880;2023-09-30T12:05:25;101479.58;;;22.44;55.29
24336;BME280;33098;52.400;16.880;2023-09-30T12:07:53;101479.33;;;22.59;55.18
24336;BME280;33098;52.400;16.880;2023-09-30T12:10:26;101475.89;;;22.78;54.83
24336;BME280;33098;52.400;16.880;2023-09-30T12:12:57;101476.18;;;22.80;54.10
24336;BME280;33098;52.400;16.880;2023-09-30T12:15:27;101482.44;;;22.78;52.92
24336;BME280;33098;52.400;16.880;2023-09-30T12:17:56;101487.13;;;22.60;52.65
24336;BME280;33098;52.400;16.880;2023-09-30T12:20:24;101487.78;;;22.37;52.87
24336;BME280;33098;52.400;16.880;2023-09-30T12:22:53;101486.88;;;22.35;53.62
24336;BME280;33098;52.400;16.880;2023-09-30T12:25:26;101492.20;;;22.36;53.59
24336;BME280;33098;52.400;16.880;2023-09-30T12:27:54;101490.04;;;22.36;53.73
24336;BME280;33098;52.400;16.880;2023-09-30T12:30:25;101490.50;;;22.32;53.43
24336;BME280;33098;52.400;16.880;2023-09-30T12:32:58;101489.75;;;22.19;53.23
24336;BME280;33098;52.400;16.880;2023-09-30T12:35:29;101492.06;;;22.11;53.54
24336;BME280;33098;52.400;16.880;2023-09-30T12:38:00;101487.02;;;22.10;53.57
24336;BME280;33098;52.400;16.880;2023-09-30T12:40:29;101495.17;;;22.06;53.44
24336;BME280;33098;52.400;16.880;2023-09-30T12:43:00;101500.33;;;21.95;52.88
24336;BME280;33098;52.400;16.880;2023-09-30T12:45:28;101503.23;;;21.81;53.23
24336;BME280;33098;52.400;16.880;2023-09-30T12:47:56;101498.54;;;21.83;53.12
24336;BME280;33098;52.400;16.880;2023-09-30T12:50:23;101501.45;;;21.88;52.68
24336;BME280;33098;52.400;16.880;2023-09-30T12:52:54;101499.13;;;21.86;52.28
24336;BME280;33098;52.400;16.880;2023-09-30T12:55:21;101490.95;;;22.00;52.65
24336;BME280;33098;52.400;16.880;2023-09-30T12:57:49;101492.12;;;22.35;53.05
24336;BME280;33098;52.400;16.880;2023-09-30T13:00:19;101489.70;;;22.73;52.75
24336;BME280;33098;52.400;16.880;2023-09-30T13:02:46;101484.90;;;22.96;51.84
24336;BME280;33098;52.400;16.880;2023-09-30T13:05:13;101486.27;;;23.22;51.16
24336;BME280;33098;52.400;16.880;2023-09-30T13:07:44;101485.61;;;23.32;51.22
24336;BME280;33098;52.400;16.880;2023-09-30T13:10:18;101482.48;;;23.22;49.71
24336;BME280;33098;52.400;16.880;2023-09-30T13:12:46;101473.94;;;22.95;50.87
24336;BME280;33098;52.400;16.880;2023-09-30T13:15:14;101469.44;;;22.95;51.48
24336;BME280;33098;52.400;16.880;2023-09-30T13:17:42;101470.70;;;23.00;51.54